sensor_id;sensor_type;location;lat;lon;timestamp;P1;durP1;ratioP1;P2;durP2;ratioP2
64295;SDS011;51082;38.236;15.432;2023-08-31T00:00:45;4.32;;;1.80;;
64295;SDS011;51082;38.236;15.432;2023-08-31T00:01:47;5.63;;;2.08;;
64295;SDS011;51082;38.236;15.432;2023-08-31T00:02:49;7.15;;;2.25;;
64295;SDS011;51082;38.236;15.432;2023-08-31T00:03:53;5.35;;;2.30;;
64295;SDS011;51082;38.236;15.432;2023-08-31T00:04:55;6.70;;;1.98;;
64295;SDS011;51082;38.236;15.432;2023-08-31T00:06:00;6.68;;;2.28;;
64295;SDS011;51082;38.236;15.432;2023-08-31T00:07:03;4.78;;;1.95;;
64295;SDS011;51082;38.236;15.432;2023-08-31T00:08:07;6.28;;;2.05;;
64295;SDS011;51082;38.236;15.432;2023-08-31T00:09:09;6.47;;;2.25;;
64295;SDS011;51082;38.236;15.432;2023-08-31T00:10:11;6.55;;;2.20;;
64295;SDS011;51082;38.236;15.432;2023-08-31T00:11:13;5.22;;;2.15;;
64295;SDS011;51082;38.236;15.432;2023-08-31T00:12:16;5.35;;;2.15;;
64295;SDS011;51082;38.236;15.432;2023-08-31T00:13:18;6.35;;;2.45;;
64295;SDS011;51082;38.236;15.432;2023-08-31T00:14:21;5.88;;;2.20;;
64295;SDS011;51082;38.236;15.432;2023-08-31T00:15:23;6.72;;;2.53;;
64295;SDS011;51082;38.236;15.432;2023-08-31T00:16:25;6.20;;;2.42;;
64295;SDS011;51082;38.236;15.432;2023-08-31T00:17:27;6.32;;;2.30;;
64295;SDS011;51082;38.236;15.432;2023-08-31T00:18:29;5.97;;;2.20;;
64295;SDS011;51082;38.236;15.432;2023-08-31T00:19:32;5.95;;;2.20;;
64295;SDS011;51082;38.236;15.432;2023-08-31T00:20:35;5.63;;;2.10;;
64295;SDS011;51082;38.236;15.432;2023-08-31T00:21:36;6.65;;;2.20;;
64295;SDS011;51082;38.236;15.432;2023-08-31T00:22:39;7.63;;;2.28;;
64295;SDS011;51082;38.236;15.432;2023-08-31T00:23:40;5.75;;;2.28;;
64295;SDS011;51082;38.236;15.432;2023-08-31T00:24:42;5.88;;;2.15;;
64295;SDS011;51082;38.236;15.432;2023-08-31T00:25:44;5.65;;;2.17;;
64295;SDS011;51082;38.236;15.432;2023-08-31T00:26:45;5.38;;;2.42;;
64295;SDS011;51082;38.236;15.432;2023-08-31T00:27:51;4.90;;;2.17;;
64295;SDS011;51082;38.236;15.432;2023-08-31T00:28:54;6.68;;;2.70;;
64295;SDS011;51082;38.236;15.432;2023-08-31T00:29:57;6.65;;;2.47;;
64295;SDS011;51082;38.236;15.432;2023-08-31T00:31:00;5.85;;;2.22;;
64295;SDS011;51082;38.236;15.432;2023-08-31T00:32:04;5.50;;;2.28;;
64295;SDS011;51082;38.236;15.432;2023-08-31T00:33:06;5.53;;;2.25;;
64295;SDS011;51082;38.236;15.432;2023-08-31T00:34:08;5.95;;;2.08;;
64295;SDS011;51082;38.236;15.432;2023-08-31T00:35:19;4.60;;;2.05;;
64295;SDS011;51082;38.236;15.432;2023-08-31T00:36:22;6.28;;;2.15;;
64295;SDS011;51082;38.236;15.432;2023-08-31T00:37:23;5.82;;;2.20;;
64295;SDS011;51082;38.236;15.432;2023-08-31T00:38:26;7.25;;;2.30;;
64295;SDS011;51082;38.236;15.432;2023-08-31T00:39:27;7.45;;;2.47;;
64295;SDS011;51082;38.236;15.432;2023-08-31T00:40:30;7.43;;;2.10;;
64295;SDS011;51082;38.236;15.432;2023-08-31T00:41:32;5.18;;;2.10;;
64295;SDS011;51082;38.236;15.432;2023-08-31T00:42:34;5.10;;;2.20;;
64295;SDS011;51082;38.236;15.432;2023-08-31T00:43:36;4.50;;;1.90;;
64295;SDS011;51082;38.236;15.432;2023-08-31T00:44:38;5.78;;;2.15;;
64295;SDS011;51082;38.236;15.432;2023-08-31T00:45:40;4.65;;;2.08;;
64295;SDS011;51082;38.236;15.432;2023-08-31T00:46:42;5.63;;;2.20;;
64295;SDS011;51082;38.236;15.432;2023-08-31T00:47:44;6.45;;;2.20;;
64295;SDS011;51082;38.236;15.432;2023-08-31T00:48:48;7.85;;;2.40;;
64295;SDS011;51082;38.236;15.432;2023-08-31T00:49:50;6.30;;;2.30;;
64295;SDS011;51082;38.236;15.432;2023-08-31T00:50:54;6.07;;;2.22;;
64295;SDS011;51082;38.236;15.432;2023-08-31T00:51:55;6.60;;;2.40;;
64295;SDS011;51082;38.236;15.432;2023-08-31T00:52:58;4.78;;;1.90;;
64295;SDS011;51082;38.236;15.432;2023-08-31T00:53:59;7.28;;;2.38;;
64295;SDS011;51082;38.236;15.432;2023-08-31T00:55:03;4.53;;;1.92;;
64295;SDS011;51082;38.236;15.432;2023-08-31T00:56:06;5.97;;;2.35;;
64295;SDS011;51082;38.236;15.432;2023-08-31T00:57:09;6.82;;;2.28;;
64295;SDS011;51082;38.236;15.432;2023-08-31T00:58:11;5.00;;;2.10;;
64295;SDS011;51082;38.236;15.432;2023-08-31T00:59:12;5.00;;;1.77;;
64295;SDS011;51082;38.236;15.432;2023-08-31T01:00:17;5.25;;;1.98;;
64295;SDS011;51082;38.236;15.432;2023-08-31T01:01:21;5.38;;;2.20;;
64295;SDS011;51082;38.236;15.432;2023-08-31T01:02:30;5.30;;;2.33;;
64295;SDS011;51082;38.236;15.432;2023-08-31T01:03:39;6.38;;;2.40;;
64295;SDS011;51082;38.236;15.432;2023-08-31T01:04:46;7.07;;;2.35;;
64295;SDS011;51082;38.236;15.432;2023-08-31T01:05:55;5.65;;;2.33;;
64295;SDS011;51082;38.236;15.432;2023-08-31T01:07:08;5.53;;;2.10;;
64295;SDS011;51082;38.236;15.432;2023-08-31T01:08:21;5.30;;;2.20;;
64295;SDS011;51082;38.236;15.432;2023-08-31T01:09:32;5.70;;;2.20;;
64295;SDS011;51082;38.236;15.432;2023-08-31T01:10:39;5.05;;;2.33;;
64295;SDS011;51082;38.236;15.432;2023-08-31T01:11:54;8.13;;;2.17;;
64295;SDS011;51082;38.236;15.432;2023-08-31T01:13:00;5.63;;;2.20;;
64295;SDS011;51082;38.236;15.432;2023-08-31T01:14:07;5.10;;;1.90;;
64295;SDS011;51082;38.236;15.432;2023-08-31T01:15:12;4.32;;;1.85;;
64295;SDS011;51082;38.236;15.432;2023-08-31T01:16:16;4.95;;;2.00;;
64295;SDS011;51082;38.236;15.432;2023-08-31T01:17:19;5.88;;;2.30;;
64295;SDS011;51082;38.236;15.432;2023-08-31T01:18:24;6.22;;;2.22;;
64295;SDS011;51082;38.236;15.432;2023-08-31T01:19:31;6.68;;;2.20;;
64295;SDS011;51082;38.236;15.432;2023-08-31T01:20:46;5.78;;;2.20;;
64295;SDS011;51082;38.236;15.432;2023-08-31T01:21:55;4.57;;;2.20;;
64295;SDS011;51082;38.236;15.432;2023-08-31T01:23:02;7.15;;;2.25;;
64295;SDS011;51082;38.236;15.432;2023-08-31T01:24:09;4.90;;;2.33;;
64295;SDS011;51082;38.236;15.432;2023-08-31T01:25:12;6.00;;;2.10;;
64295;SDS011;51082;38.236;15.432;2023-08-31T01:26:13;6.22;;;2.33;;
64295;SDS011;51082;38.236;15.432;2023-08-31T01:27:16;5.72;;;2.38;;
64295;SDS011;51082;38.236;15.432;2023-08-31T01:28:18;4.57;;;2.10;;
64295;SDS011;51082;38.236;15.432;2023-08-31T01:29:20;7.00;;;2.60;;
64295;SDS011;51082;38.236;15.432;2023-08-31T01:30:22;5.72;;;2.08;;
64295;SDS011;51082;38.236;15.432;2023-08-31T01:31:25;5.38;;;2.00;;
64295;SDS011;51082;38.236;15.432;2023-08-31T01:32:26;5.72;;;2.17;;
64295;SDS011;51082;38.236;15.432;2023-08-31T01:33:29;7.05;;;2.67;;
64295;SDS011;51082;38.236;15.432;2023-08-31T01:34:30;6.55;;;2.20;;
64295;SDS011;51082;38.236;15.432;2023-08-31T01:35:33;5.30;;;2.08;;
64295;SDS011;51082;38.236;15.432;2023-08-31T01:36:41;7.00;;;2.20;;
64295;SDS011;51082;38.236;15.432;2023-08-31T01:37:49;6.05;;;2.05;;
64295;SDS011;51082;38.236;15.432;2023-08-31T01:38:54;5.22;;;2.05;;
64295;SDS011;51082;38.236;15.432;2023-08-31T01:40:03;5.75;;;2.17;;
64295;SDS011;51082;38.236;15.432;2023-08-31T01:41:12;6.65;;;2.42;;
64295;SDS011;51082;38.236;15.432;2023-08-31T01:42:18;5.35;;;2.05;;
64295;SDS011;51082;38.236;15.432;2023-08-31T01:43:19;5.30;;;2.10;;
64295;SDS011;51082;38.236;15.432;2023-08-31T01:44:23;6.47;;;2.28;;
64295;SDS011;51082;38.236;15.432;2023-08-31T01:45:26;6.03;;;2.10;;
64295;SDS011;51082;38.236;15.432;2023-08-31T01:46:29;5.07;;;1.95;;
64295;SDS011;51082;38.236;15.432;2023-08-31T01:47:31;7.68;;;2.30;;
64295;SDS011;51082;38.236;15.432;2023-08-31T01:48:37;5.10;;;1.90;;
64295;SDS011;51082;38.236;15.432;2023-08-31T01:49:40;4.38;;;2.10;;
64295;SDS011;51082;38.236;15.432;2023-08-31T01:50:44;5.18;;;2.20;;
64295;SDS011;51082;38.236;15.432;2023-08-31T01:51:45;6.15;;;2.38;;
64295;SDS011;51082;38.236;15.432;2023-08-31T01:52:48;7.30;;;2.20;;
64295;SDS011;51082;38.236;15.432;2023-08-31T01:53:49;6.55;;;2.05;;
64295;SDS011;51082;38.236;15.432;2023-08-31T01:54:52;6.38;;;2.22;;
64295;SDS011;51082;38.236;15.432;2023-08-31T01:55:55;5.93;;;2.20;;
64295;SDS011;51082;38.236;15.432;2023-08-31T01:56:57;6.78;;;2.20;;
64295;SDS011;51082;38.236;15.432;2023-08-31T01:57:59;6.68;;;2.13;;
64295;SDS011;51082;38.236;15.432;2023-08-31T01:59:01;5.70;;;2.17;;
64295;SDS011;51082;38.236;15.432;2023-08-31T02:00:03;5.53;;;2.17;;
64295;SDS011;51082;38.236;15.432;2023-08-31T02:01:06;6.15;;;2.30;;
64295;SDS011;51082;38.236;15.432;2023-08-31T02:02:08;5.47;;;1.95;;
64295;SDS011;51082;38.236;15.432;2023-08-31T02:03:10;6.80;;;1.98;;
64295;SDS011;51082;38.236;15.432;2023-08-31T02:04:12;6.25;;;2.13;;
64295;SDS011;51082;38.236;15.432;2023-08-31T02:05:13;6.32;;;2.30;;
64295;SDS011;51082;38.236;15.432;2023-08-31T02:06:16;6.03;;;2.25;;
64295;SDS011;51082;38.236;15.432;2023-08-31T02:07:17;5.10;;;1.95;;
64295;SDS011;51082;38.236;15.432;2023-08-31T02:08:20;5.32;;;2.40;;
64295;SDS011;51082;38.236;15.432;2023-08-31T02:09:21;7.25;;;2.30;;
64295;SDS011;51082;38.236;15.432;2023-08-31T02:10:24;7.40;;;2.40;;
64295;SDS011;51082;38.236;15.432;2023-08-31T02:11:28;6.65;;;2.30;;
64295;SDS011;51082;38.236;15.432;2023-08-31T02:12:32;7.10;;;2.20;;
64295;SDS011;51082;38.236;15.432;2023-08-31T02:13:33;7.40;;;2.15;;
64295;SDS011;51082;38.236;15.432;2023-08-31T02:14:36;7.35;;;2.40;;
64295;SDS011;51082;38.236;15.432;2023-08-31T02:15:38;6.28;;;2.50;;
64295;SDS011;51082;38.236;15.432;2023-08-31T02:16:41;5.53;;;2.30;;
64295;SDS011;51082;38.236;15.432;2023-08-31T02:17:42;5.93;;;2.33;;
64295;SDS011;51082;38.236;15.432;2023-08-31T02:18:45;5.75;;;2.25;;
64295;SDS011;51082;38.236;15.432;2023-08-31T02:19:47;5.93;;;2.50;;
64295;SDS011;51082;38.236;15.432;2023-08-31T02:20:51;4.97;;;2.05;;
64295;SDS011;51082;38.236;15.432;2023-08-31T02:21:53;6.03;;;2.05;;
64295;SDS011;51082;38.236;15.432;2023-08-31T02:22:56;5.25;;;1.85;;
64295;SDS011;51082;38.236;15.432;2023-08-31T02:23:57;3.75;;;1.83;;
64295;SDS011;51082;38.236;15.432;2023-08-31T02:25:00;5.82;;;2.38;;
64295;SDS011;51082;38.236;15.432;2023-08-31T02:26:02;4.90;;;2.00;;
64295;SDS011;51082;38.236;15.432;2023-08-31T02:27:06;5.38;;;2.30;;
64295;SDS011;51082;38.236;15.432;2023-08-31T02:28:07;6.70;;;2.03;;
64295;SDS011;51082;38.236;15.432;2023-08-31T02:29:10;7.35;;;2.50;;
64295;SDS011;51082;38.236;15.432;2023-08-31T02:30:11;6.00;;;2.30;;
64295;SDS011;51082;38.236;15.432;2023-08-31T02:31:16;5.38;;;2.00;;
64295;SDS011;51082;38.236;15.432;2023-08-31T02:32:18;6.78;;;2.00;;
64295;SDS011;51082;38.236;15.432;2023-08-31T02:33:19;6.13;;;2.25;;
64295;SDS011;51082;38.236;15.432;2023-08-31T02:34:22;7.00;;;2.40;;
64295;SDS011;51082;38.236;15.432;2023-08-31T02:35:23;6.93;;;2.30;;
64295;SDS011;51082;38.236;15.432;2023-08-31T02:36:26;8.60;;;2.40;;
64295;SDS011;51082;38.236;15.432;2023-08-31T02:37:27;5.18;;;2.28;;
64295;SDS011;51082;38.236;15.432;2023-08-31T02:38:30;5.93;;;2.22;;
64295;SDS011;51082;38.236;15.432;2023-08-31T02:39:31;5.95;;;2.13;;
64295;SDS011;51082;38.236;15.432;2023-08-31T02:40:34;7.63;;;2.33;;
64295;SDS011;51082;38.236;15.432;2023-08-31T02:41:35;5.38;;;2.10;;
64295;SDS011;51082;38.236;15.432;2023-08-31T02:42:39;5.47;;;2.10;;
64295;SDS011;51082;38.236;15.432;2023-08-31T02:43:40;4.93;;;2.20;;
64295;SDS011;51082;38.236;15.432;2023-08-31T02:44:43;5.40;;;2.10;;
64295;SDS011;51082;38.236;15.432;2023-08-31T02:45:44;5.82;;;2.25;;
64295;SDS011;51082;38.236;15.432;2023-08-31T02:46:47;5.47;;;2.40;;
64295;SDS011;51082;38.236;15.432;2023-08-31T02:47:48;4.97;;;2.22;;
64295;SDS011;51082;38.236;15.432;2023-08-31T02:48:51;6.53;;;2.05;;
64295;SDS011;51082;38.236;15.432;2023-08-31T02:49:52;5.43;;;2.15;;
64295;SDS011;51082;38.236;15.432;2023-08-31T02:50:56;5.40;;;1.98;;
64295;SDS011;51082;38.236;15.432;2023-08-31T02:51:58;6.97;;;2.40;;
64295;SDS011;51082;38.236;15.432;2023-08-31T02:53:00;7.55;;;2.10;;
64295;SDS011;51082;38.236;15.432;2023-08-31T02:54:02;5.82;;;2.20;;
64295;SDS011;51082;38.236;15.432;2023-08-31T02:55:05;5.78;;;2.10;;
64295;SDS011;51082;38.236;15.432;2023-08-31T02:56:07;5.30;;;2.00;;
64295;SDS011;51082;38.236;15.432;2023-08-31T02:57:10;5.70;;;1.90;;
64295;SDS011;51082;38.236;15.432;2023-08-31T02:58:13;5.05;;;2.15;;
64295;SDS011;51082;38.236;15.432;2023-08-31T02:59:16;6.43;;;2.17;;
64295;SDS011;51082;38.236;15.432;2023-08-31T03:00:18;5.68;;;2.20;;
64295;SDS011;51082;38.236;15.432;2023-08-31T03:01:22;4.97;;;2.05;;
64295;SDS011;51082;38.236;15.432;2023-08-31T03:02:24;5.68;;;2.20;;
64295;SDS011;51082;38.236;15.432;2023-08-31T03:03:27;6.65;;;2.10;;
64295;SDS011;51082;38.236;15.432;2023-08-31T03:04:28;7.03;;;2.35;;
64295;SDS011;51082;38.236;15.432;2023-08-31T03:05:31;6.50;;;2.25;;
64295;SDS011;51082;38.236;15.432;2023-08-31T03:06:32;5.38;;;2.30;;
64295;SDS011;51082;38.236;15.432;2023-08-31T03:07:35;5.72;;;2.13;;
64295;SDS011;51082;38.236;15.432;2023-08-31T03:08:37;6.63;;;2.55;;
64295;SDS011;51082;38.236;15.432;2023-08-31T03:09:40;4.65;;;2.20;;
64295;SDS011;51082;38.236;15.432;2023-08-31T03:10:42;6.50;;;2.30;;
64295;SDS011;51082;38.236;15.432;2023-08-31T03:11:44;4.85;;;2.10;;
64295;SDS011;51082;38.236;15.432;2023-08-31T03:12:46;6.88;;;2.30;;
64295;SDS011;51082;38.236;15.432;2023-08-31T03:13:49;5.53;;;2.33;;
64295;SDS011;51082;38.236;15.432;2023-08-31T03:14:51;6.40;;;2.55;;
64295;SDS011;51082;38.236;15.432;2023-08-31T03:15:53;6.13;;;2.50;;
64295;SDS011;51082;38.236;15.432;2023-08-31T03:16:57;5.82;;;2.35;;
64295;SDS011;51082;38.236;15.432;2023-08-31T03:17:58;4.63;;;2.10;;
64295;SDS011;51082;38.236;15.432;2023-08-31T03:18:59;6.03;;;2.38;;
64295;SDS011;51082;38.236;15.432;2023-08-31T03:20:02;7.07;;;2.40;;
64295;SDS011;51082;38.236;15.432;2023-08-31T03:21:05;6.88;;;2.60;;
64295;SDS011;51082;38.236;15.432;2023-08-31T03:22:08;7.75;;;2.30;;
64295;SDS011;51082;38.236;15.432;2023-08-31T03:23:10;6.03;;;2.58;;
64295;SDS011;51082;38.236;15.432;2023-08-31T03:24:12;7.32;;;3.05;;
64295;SDS011;51082;38.236;15.432;2023-08-31T03:25:14;6.43;;;2.55;;
64295;SDS011;51082;38.236;15.432;2023-08-31T03:26:16;4.97;;;2.20;;
64295;SDS011;51082;38.236;15.432;2023-08-31T03:27:18;5.53;;;2.10;;
64295;SDS011;51082;38.236;15.432;2023-08-31T03:28:21;5.68;;;2.30;;
64295;SDS011;51082;38.236;15.432;2023-08-31T03:29:23;7.75;;;2.38;;
64295;SDS011;51082;38.236;15.432;2023-08-31T03:30:26;5.18;;;2.03;;
64295;SDS011;51082;38.236;15.432;2023-08-31T03:31:29;6.32;;;2.20;;
64295;SDS011;51082;38.236;15.432;2023-08-31T03:32:32;6.85;;;2.10;;
64295;SDS011;51082;38.236;15.432;2023-08-31T03:33:33;5.47;;;2.38;;
64295;SDS011;51082;38.236;15.432;2023-08-31T03:34:35;5.45;;;2.20;;
64295;SDS011;51082;38.236;15.432;2023-08-31T03:35:37;6.20;;;2.40;;
64295;SDS011;51082;38.236;15.432;2023-08-31T03:36:40;5.32;;;2.22;;
64295;SDS011;51082;38.236;15.432;2023-08-31T03:37:41;6.15;;;2.40;;
64295;SDS011;51082;38.236;15.432;2023-08-31T03:38:44;6.28;;;2.25;;
64295;SDS011;51082;38.236;15.432;2023-08-31T03:39:47;6.40;;;2.25;;
64295;SDS011;51082;38.236;15.432;2023-08-31T03:40:52;6.32;;;2.10;;
64295;SDS011;51082;38.236;15.432;2023-08-31T03:41:55;5.28;;;2.08;;
64295;SDS011;51082;38.236;15.432;2023-08-31T03:42:58;6.82;;;2.55;;
64295;SDS011;51082;38.236;15.432;2023-08-31T03:43:59;6.72;;;2.40;;
64295;SDS011;51082;38.236;15.432;2023-08-31T03:45:04;5.88;;;2.28;;
64295;SDS011;51082;38.236;15.432;2023-08-31T03:46:05;7.20;;;2.63;;
64295;SDS011;51082;38.236;15.432;2023-08-31T03:47:08;6.15;;;2.20;;
64295;SDS011;51082;38.236;15.432;2023-08-31T03:48:09;6.32;;;2.42;;
64295;SDS011;51082;38.236;15.432;2023-08-31T03:49:12;7.70;;;2.60;;
64295;SDS011;51082;38.236;15.432;2023-08-31T03:50:13;5.18;;;2.25;;
64295;SDS011;51082;38.236;15.432;2023-08-31T03:51:16;5.30;;;2.30;;
64295;SDS011;51082;38.236;15.432;2023-08-31T03:52:17;7.53;;;2.63;;
64295;SDS011;51082;38.236;15.432;2023-08-31T03:53:20;5.15;;;2.47;;
64295;SDS011;51082;38.236;15.432;2023-08-31T03:54:21;6.85;;;2.50;;
64295;SDS011;51082;38.236;15.432;2023-08-31T03:55:24;5.68;;;2.15;;
64295;SDS011;51082;38.236;15.432;2023-08-31T03:56:25;4.47;;;2.20;;
64295;SDS011;51082;38.236;15.432;2023-08-31T03:57:28;5.72;;;2.10;;
64295;SDS011;51082;38.236;15.432;2023-08-31T03:58:29;5.82;;;2.42;;
64295;SDS011;51082;38.236;15.432;2023-08-31T03:59:32;5.60;;;2.15;;
64295;SDS011;51082;38.236;15.432;2023-08-31T04:00:35;6.07;;;2.60;;
64295;SDS011;51082;38.236;15.432;2023-08-31T04:01:38;6.05;;;2.13;;
64295;SDS011;51082;38.236;15.432;2023-08-31T04:02:41;6.00;;;2.30;;
64295;SDS011;51082;38.236;15.432;2023-08-31T04:03:44;6.65;;;2.45;;
64295;SDS011;51082;38.236;15.432;2023-08-31T04:04:45;7.70;;;2.60;;
64295;SDS011;51082;38.236;15.432;2023-08-31T04:05:48;5.78;;;2.20;;
64295;SDS011;51082;38.236;15.432;2023-08-31T04:06:54;6.80;;;2.20;;
64295;SDS011;51082;38.236;15.432;2023-08-31T04:07:56;7.53;;;2.30;;
64295;SDS011;51082;38.236;15.432;2023-08-31T04:08:58;6.00;;;2.20;;
64295;SDS011;51082;38.236;15.432;2023-08-31T04:10:00;7.70;;;2.50;;
64295;SDS011;51082;38.236;15.432;2023-08-31T04:11:02;5.00;;;2.28;;
64295;SDS011;51082;38.236;15.432;2023-08-31T04:12:04;7.55;;;2.45;;
64295;SDS011;51082;38.236;15.432;2023-08-31T04:13:07;6.03;;;2.50;;
64295;SDS011;51082;38.236;15.432;2023-08-31T04:14:08;6.20;;;2.45;;
64295;SDS011;51082;38.236;15.432;2023-08-31T04:15:10;6.55;;;2.33;;
64295;SDS011;51082;38.236;15.432;2023-08-31T04:16:15;8.15;;;2.50;;
64295;SDS011;51082;38.236;15.432;2023-08-31T04:17:17;6.00;;;2.35;;
64295;SDS011;51082;38.236;15.432;2023-08-31T04:18:20;5.60;;;2.25;;
64295;SDS011;51082;38.236;15.432;2023-08-31T04:19:22;6.82;;;2.50;;
64295;SDS011;51082;38.236;15.432;2023-08-31T04:20:24;8.25;;;2.42;;
64295;SDS011;51082;38.236;15.432;2023-08-31T04:21:26;5.53;;;2.40;;
64295;SDS011;51082;38.236;15.432;2023-08-31T04:22:28;8.07;;;2.50;;
64295;SDS011;51082;38.236;15.432;2023-08-31T04:23:30;5.78;;;2.28;;
64295;SDS011;51082;38.236;15.432;2023-08-31T04:24:33;6.57;;;2.70;;
64295;SDS011;51082;38.236;15.432;2023-08-31T04:25:34;5.32;;;2.60;;
64295;SDS011;51082;38.236;15.432;2023-08-31T04:26:36;6.72;;;2.88;;
64295;SDS011;51082;38.236;15.432;2023-08-31T04:27:39;4.78;;;2.30;;
64295;SDS011;51082;38.236;15.432;2023-08-31T04:28:40;6.88;;;2.50;;
64295;SDS011;51082;38.236;15.432;2023-08-31T04:29:43;6.30;;;2.40;;
64295;SDS011;51082;38.236;15.432;2023-08-31T04:30:44;5.10;;;2.53;;
64295;SDS011;51082;38.236;15.432;2023-08-31T04:31:48;6.47;;;2.53;;
64295;SDS011;51082;38.236;15.432;2023-08-31T04:32:50;6.00;;;2.30;;
64295;SDS011;51082;38.236;15.432;2023-08-31T04:33:52;6.47;;;2.53;;
64295;SDS011;51082;38.236;15.432;2023-08-31T04:34:54;8.18;;;2.47;;
64295;SDS011;51082;38.236;15.432;2023-08-31T04:35:56;7.20;;;2.63;;
64295;SDS011;51082;38.236;15.432;2023-08-31T04:36:58;6.60;;;2.30;;
64295;SDS011;51082;38.236;15.432;2023-08-31T04:37:59;5.90;;;2.33;;
64295;SDS011;51082;38.236;15.432;2023-08-31T04:39:02;5.97;;;2.40;;
64295;SDS011;51082;38.236;15.432;2023-08-31T04:40:04;6.63;;;2.47;;
64295;SDS011;51082;38.236;15.432;2023-08-31T04:41:09;8.48;;;2.75;;
64295;SDS011;51082;38.236;15.432;2023-08-31T04:42:10;4.75;;;2.38;;
64295;SDS011;51082;38.236;15.432;2023-08-31T04:43:13;5.90;;;2.08;;
64295;SDS011;51082;38.236;15.432;2023-08-31T04:44:14;6.55;;;2.42;;
64295;SDS011;51082;38.236;15.432;2023-08-31T04:45:17;5.72;;;2.60;;
64295;SDS011;51082;38.236;15.432;2023-08-31T04:46:19;8.80;;;2.58;;
64295;SDS011;51082;38.236;15.432;2023-08-31T04:47:23;5.38;;;2.40;;
64295;SDS011;51082;38.236;15.432;2023-08-31T04:48:24;5.40;;;2.58;;
64295;SDS011;51082;38.236;15.432;2023-08-31T04:49:27;6.93;;;2.30;;
64295;SDS011;51082;38.236;15.432;2023-08-31T04:50:29;7.57;;;2.70;;
64295;SDS011;51082;38.236;15.432;2023-08-31T04:51:32;6.60;;;2.65;;
64295;SDS011;51082;38.236;15.432;2023-08-31T04:52:35;6.47;;;2.58;;
64295;SDS011;51082;38.236;15.432;2023-08-31T04:53:37;7.15;;;2.47;;
64295;SDS011;51082;38.236;15.432;2023-08-31T04:54:39;8.32;;;3.08;;
64295;SDS011;51082;38.236;15.432;2023-08-31T04:55:41;6.30;;;2.55;;
64295;SDS011;51082;38.236;15.432;2023-08-31T04:56:43;5.80;;;2.67;;
64295;SDS011;51082;38.236;15.432;2023-08-31T04:57:45;7.32;;;2.90;;
64295;SDS011;51082;38.236;15.432;2023-08-31T04:58:47;5.70;;;2.70;;
64295;SDS011;51082;38.236;15.432;2023-08-31T04:59:49;6.10;;;2.88;;
64295;SDS011;51082;38.236;15.432;2023-08-31T05:00:51;5.07;;;2.50;;
64295;SDS011;51082;38.236;15.432;2023-08-31T05:01:54;6.50;;;2.78;;
64295;SDS011;51082;38.236;15.432;2023-08-31T05:02:57;6.20;;;2.70;;
64295;SDS011;51082;38.236;15.432;2023-08-31T05:03:59;7.55;;;3.00;;
64295;SDS011;51082;38.236;15.432;2023-08-31T05:05:01;5.80;;;3.00;;
64295;SDS011;51082;38.236;15.432;2023-08-31T05:06:04;8.00;;;2.75;;
64295;SDS011;51082;38.236;15.432;2023-08-31T05:07:05;8.13;;;3.30;;
64295;SDS011;51082;38.236;15.432;2023-08-31T05:08:08;6.25;;;2.92;;
64295;SDS011;51082;38.236;15.432;2023-08-31T05:09:10;7.95;;;3.17;;
64295;SDS011;51082;38.236;15.432;2023-08-31T05:10:12;7.47;;;3.38;;
64295;SDS011;51082;38.236;15.432;2023-08-31T05:11:14;5.85;;;2.85;;
64295;SDS011;51082;38.236;15.432;2023-08-31T05:12:16;6.57;;;3.30;;
64295;SDS011;51082;38.236;15.432;2023-08-31T05:13:18;7.43;;;2.92;;
64295;SDS011;51082;38.236;15.432;2023-08-31T05:14:19;7.28;;;3.20;;
64295;SDS011;51082;38.236;15.432;2023-08-31T05:15:22;7.25;;;3.10;;
64295;SDS011;51082;38.236;15.432;2023-08-31T05:16:23;6.93;;;3.20;;
64295;SDS011;51082;38.236;15.432;2023-08-31T05:17:26;5.82;;;2.90;;
64295;SDS011;51082;38.236;15.432;2023-08-31T05:18:29;8.10;;;3.25;;
64295;SDS011;51082;38.236;15.432;2023-08-31T05:19:31;7.10;;;3.20;;
64295;SDS011;51082;38.236;15.432;2023-08-31T05:20:33;6.90;;;3.20;;
64295;SDS011;51082;38.236;15.432;2023-08-31T05:21:35;6.63;;;3.22;;
64295;SDS011;51082;38.236;15.432;2023-08-31T05:22:37;6.90;;;2.88;;
64295;SDS011;51082;38.236;15.432;2023-08-31T05:23:39;9.18;;;3.25;;
64295;SDS011;51082;38.236;15.432;2023-08-31T05:24:40;6.78;;;3.20;;
64295;SDS011;51082;38.236;15.432;2023-08-31T05:25:43;7.05;;;3.00;;
64295;SDS011;51082;38.236;15.432;2023-08-31T05:26:44;8.07;;;3.63;;
64295;SDS011;51082;38.236;15.432;2023-08-31T05:27:47;8.60;;;3.22;;
64295;SDS011;51082;38.236;15.432;2023-08-31T05:28:48;7.97;;;3.42;;
64295;SDS011;51082;38.236;15.432;2023-08-31T05:29:51;8.30;;;3.50;;
64295;SDS011;51082;38.236;15.432;2023-08-31T05:30:53;5.78;;;2.83;;
64295;SDS011;51082;38.236;15.432;2023-08-31T05:31:58;7.63;;;3.70;;
64295;SDS011;51082;38.236;15.432;2023-08-31T05:32:59;7.85;;;3.25;;
64295;SDS011;51082;38.236;15.432;2023-08-31T05:34:03;8.40;;;3.15;;
64295;SDS011;51082;38.236;15.432;2023-08-31T05:35:05;7.45;;;3.30;;
64295;SDS011;51082;38.236;15.432;2023-08-31T05:36:08;7.47;;;3.30;;
64295;SDS011;51082;38.236;15.432;2023-08-31T05:37:09;6.72;;;3.33;;
64295;SDS011;51082;38.236;15.432;2023-08-31T05:38:12;7.70;;;3.25;;
64295;SDS011;51082;38.236;15.432;2023-08-31T05:39:14;8.48;;;3.20;;
64295;SDS011;51082;38.236;15.432;2023-08-31T05:40:17;8.75;;;3.42;;
64295;SDS011;51082;38.236;15.432;2023-08-31T05:41:19;7.47;;;3.75;;
64295;SDS011;51082;38.236;15.432;2023-08-31T05:42:21;8.25;;;3.22;;
64295;SDS011;51082;38.236;15.432;2023-08-31T05:43:23;6.85;;;3.20;;
64295;SDS011;51082;38.236;15.432;2023-08-31T05:44:25;5.75;;;2.92;;
64295;SDS011;51082;38.236;15.432;2023-08-31T05:45:27;8.82;;;3.60;;
64295;SDS011;51082;38.236;15.432;2023-08-31T05:46:29;6.45;;;3.28;;
64295;SDS011;51082;38.236;15.432;2023-08-31T05:47:31;8.43;;;3.50;;
64295;SDS011;51082;38.236;15.432;2023-08-31T05:48:33;7.10;;;3.20;;
64295;SDS011;51082;38.236;15.432;2023-08-31T05:49:36;6.45;;;3.25;;
64295;SDS011;51082;38.236;15.432;2023-08-31T05:50:39;7.38;;;2.83;;
64295;SDS011;51082;38.236;15.432;2023-08-31T05:51:41;6.38;;;3.20;;
64295;SDS011;51082;38.236;15.432;2023-08-31T05:52:43;7.80;;;3.35;;
64295;SDS011;51082;38.236;15.432;2023-08-31T05:53:44;7.53;;;3.13;;
64295;SDS011;51082;38.236;15.432;2023-08-31T05:54:47;8.52;;;3.35;;
64295;SDS011;51082;38.236;15.432;2023-08-31T05:55:49;7.60;;;3.33;;
64295;SDS011;51082;38.236;15.432;2023-08-31T05:56:51;6.75;;;3.03;;
64295;SDS011;51082;38.236;15.432;2023-08-31T05:57:52;7.00;;;3.25;;
64295;SDS011;51082;38.236;15.432;2023-08-31T05:58:55;6.13;;;3.33;;
64295;SDS011;51082;38.236;15.432;2023-08-31T05:59:57;6.95;;;2.80;;
64295;SDS011;51082;38.236;15.432;2023-08-31T06:00:59;7.20;;;3.13;;
64295;SDS011;51082;38.236;15.432;2023-08-31T06:02:01;6.72;;;3.30;;
64295;SDS011;51082;38.236;15.432;2023-08-31T06:03:05;8.98;;;3.30;;
64295;SDS011;51082;38.236;15.432;2023-08-31T06:04:06;7.85;;;3.20;;
64295;SDS011;51082;38.236;15.432;2023-08-31T06:05:11;7.75;;;3.28;;
64295;SDS011;51082;38.236;15.432;2023-08-31T06:06:13;6.75;;;2.85;;
64295;SDS011;51082;38.236;15.432;2023-08-31T06:07:15;8.20;;;3.40;;
64295;SDS011;51082;38.236;15.432;2023-08-31T06:08:17;6.63;;;2.72;;
64295;SDS011;51082;38.236;15.432;2023-08-31T06:09:19;8.88;;;3.40;;
64295;SDS011;51082;38.236;15.432;2023-08-31T06:10:21;7.10;;;3.13;;
64295;SDS011;51082;38.236;15.432;2023-08-31T06:11:24;8.23;;;3.10;;
64295;SDS011;51082;38.236;15.432;2023-08-31T06:12:25;5.50;;;3.03;;